X  Fechar Metar - Info de Aeroporto     LPMT Montijo Air Base
Temperatura
5°C Temperatura
5°C Ptº Orvalho
100% Humidade



Vento
5 KM/H
3 MPH
1 M/S
3 NÓS



130°
SE
Condições Atuais

Parcialmente Nublado Parcialmente Nublado
Pressão 1026.92 (hPa) - 30.32 (inHg)
Visibilidade 6.2 (milha) - 10 (km)
Aeroporto
Código-Aeroporto LPMT

Localização: Montijo Air Base
Distância: 6 (km)

Metar:
LPMT 010800Z 13003KT 9999 FEW040 05/05 Q1027

Hora: 01-12-2021 08:00 WET